Terminal Aerodrome Forecast
Issued by NWS

Home | Current Version | Previous Version | Graphics & Text | Print | Product List | Glossary On
Versions: 1 2 3 4 5 6 7 8 9 10 11 12 13 14 15 16
556
FTUS43 KABR 291721
TAFPIR
TAF
KPIR 291721Z 2918/3018 04008KT P6SM SCT250
     FM292000 06012KT P6SM SCT250
     FM300100 06008KT P6SM BKN200
     FM301100 01006KT P6SM BKN150
     FM301400 01011KT P6SM BKN130=

USA.gov is the U.S. government's official web portal to all federal, state and local government web resources and services.